Time;durP1;ratioP1;P1;durP2;ratioP2;P2;SDS_P1;SDS_P2;PMS_P1;PMS_P2;Temp;Humidity;BMP_temperature;BMP_pressure;BME280_temperature;BME280_humidity;BME280_pressure;Samples;Min_cycle;Max_cycle;Signal;HPM_P1;HPM_P2
2022/11/03 00:11:40;;;;;;;4.60;2.10;;;9.80;99.90;;;;;;5111449;28;20760;-72
2022/11/03 00:14:08;;;;;;;8.70;2.43;;;9.80;99.90;;;;;;5113367;28;20403;-72
2022/11/03 00:16:34;;;;;;;9.00;2.27;;;9.80;99.90;;;;;;5111826;28;20418;-73
2022/11/03 00:19:00;;;;;;;4.80;1.93;;;9.80;99.90;;;;;;5113163;28;20427;-73
2022/11/03 00:21:25;;;;;;;4.97;2.00;;;9.80;99.90;;;;;;5112942;28;20482;-72
2022/11/03 00:23:51;;;;;;;6.23;2.33;;;9.90;99.90;;;;;;5113064;28;20173;-72
2022/11/03 00:26:20;;;;;;;4.10;2.33;;;9.90;99.90;;;;;;5112873;28;20161;-72
2022/11/03 00:28:47;;;;;;;6.63;2.27;;;9.90;99.90;;;;;;5112912;28;20737;-72
2022/11/03 00:31:37;;;;;;;4.40;1.57;;;9.80;99.90;;;;;;5112813;28;20473;-72
2022/11/03 00:34:04;;;;;;;9.80;2.20;;;9.80;99.90;;;;;;5105009;28;20414;-72
2022/11/03 00:36:32;;;;;;;4.93;1.93;;;9.80;99.90;;;;;;5112750;28;20493;-73
2022/11/03 00:38:58;;;;;;;6.63;1.87;;;9.80;99.90;;;;;;5112813;28;20406;-73
2022/11/03 00:41:24;;;;;;;5.37;2.10;;;9.80;99.90;;;;;;5112318;28;20553;-73
2022/11/03 00:43:51;;;;;;;6.60;2.20;;;9.80;99.90;;;;;;5112640;28;20977;-73
2022/11/03 00:46:17;;;;;;;3.23;2.00;;;9.80;99.90;;;;;;5112230;28;20915;-73
2022/11/03 00:48:43;;;;;;;10.50;1.93;;;9.70;99.90;;;;;;5112702;28;20410;-72
2022/11/03 00:51:10;;;;;;;4.07;1.53;;;9.80;99.90;;;;;;5112441;28;20434;-73
2022/11/03 00:53:44;;;;;;;5.63;1.90;;;9.80;99.90;;;;;;5112759;28;20646;-73
2022/11/03 00:56:21;;;;;;;6.50;2.30;;;9.70;99.90;;;;;;5112258;28;20402;-73
2022/11/03 00:58:47;;;;;;;5.57;2.20;;;9.70;99.90;;;;;;5112406;28;20458;-73
2022/11/03 01:01:15;;;;;;;3.57;1.90;;;9.70;99.90;;;;;;5112360;28;20453;-73
2022/11/03 01:06:48;;;;;;;8.50;2.80;;;9.70;99.90;;;;;;5112561;28;20407;-73
2022/11/03 01:06:50;;;;;;;7.50;2.37;;;9.70;99.90;;;;;;5112093;28;20413;-73
2022/11/03 01:09:23;;;;;;;12.17;2.70;;;9.70;99.90;;;;;;5112463;28;20481;-72
2022/11/03 01:12:16;;;;;;;11.20;2.80;;;9.60;99.90;;;;;;5112182;28;20422;-71
2022/11/03 01:14:48;;;;;;;5.87;1.77;;;9.60;99.90;;;;;;5111038;28;20774;-71
2022/11/03 01:17:19;;;;;;;4.83;2.13;;;9.60;99.90;;;;;;5112397;28;20408;-72
2022/11/03 01:19:45;;;;;;;10.93;2.97;;;9.60;99.90;;;;;;5111985;28;20441;-71
2022/11/03 01:22:12;;;;;;;3.27;1.53;;;9.60;99.90;;;;;;5112103;28;20453;-72
2022/11/03 01:24:40;;;;;;;9.30;2.47;;;9.60;99.90;;;;;;5111945;28;20426;-72
2022/11/03 01:27:06;;;;;;;4.80;2.10;;;9.50;99.90;;;;;;5112263;28;20481;-72
2022/11/03 01:29:31;;;;;;;8.30;2.43;;;9.50;99.90;;;;;;5112195;28;20437;-72
2022/11/03 01:31:57;;;;;;;7.47;2.43;;;9.50;99.90;;;;;;5112178;28;20419;-72
2022/11/03 01:34:23;;;;;;;2.80;1.30;;;9.40;99.90;;;;;;5110725;28;20179;-72
2022/11/03 01:36:48;;;;;;;6.67;2.90;;;9.40;99.90;;;;;;5112234;28;20654;-72
2022/11/03 01:39:16;;;;;;;2.93;1.53;;;9.40;99.90;;;;;;5112175;28;20188;-72
2022/11/03 01:41:45;;;;;;;9.40;2.17;;;9.30;99.90;;;;;;5111794;28;20292;-73
2022/11/03 01:44:10;;;;;;;4.27;1.87;;;9.30;99.90;;;;;;5111869;28;20414;-73
2022/11/03 01:46:38;;;;;;;6.40;2.33;;;9.30;99.90;;;;;;5111954;28;20957;-73
2022/11/03 01:49:10;;;;;;;13.70;3.27;;;9.30;99.90;;;;;;5111924;28;20192;-73
2022/11/03 01:51:36;;;;;;;5.83;1.80;;;9.40;99.90;;;;;;5111897;28;20418;-72
2022/11/03 01:54:07;;;;;;;11.00;2.40;;;9.40;99.90;;;;;;5113000;28;20456;-72
2022/11/03 01:56:35;;;;;;;8.67;2.40;;;9.40;99.90;;;;;;5115867;28;20402;-72
2022/11/03 01:59:02;;;;;;;5.00;2.40;;;9.30;99.90;;;;;;5115975;28;20414;-72
2022/11/03 02:01:28;;;;;;;5.63;1.93;;;9.30;99.90;;;;;;5115641;28;20454;-72
2022/11/03 02:04:00;;;;;;;9.27;2.60;;;9.30;99.90;;;;;;5115936;28;20406;-72
2022/11/03 02:06:27;;;;;;;11.43;2.00;;;9.30;99.90;;;;;;5115801;28;20399;-73
2022/11/03 02:09:03;;;;;;;8.47;2.27;;;9.40;99.90;;;;;;5116017;28;20903;-73
2022/11/03 02:14:14;;;;;;;5.90;3.40;;;9.40;99.90;;;;;;5115565;28;20780;-73
2022/11/03 02:16:56;;;;;;;9.47;3.00;;;9.40;99.90;;;;;;5115574;28;20410;-72
2022/11/03 02:19:43;;;;;;;5.27;2.13;;;9.40;99.90;;;;;;5115267;28;20200;-72
2022/11/03 02:22:33;;;;;;;9.07;2.43;;;9.30;99.90;;;;;;5115555;28;20442;-72
2022/11/03 02:25:31;;;;;;;4.80;2.40;;;9.30;99.90;;;;;;5115229;28;20454;-72
2022/11/03 02:27:58;;;;;;;4.83;1.70;;;9.30;99.90;;;;;;5115454;28;20795;-73
2022/11/03 02:30:25;;;;;;;10.23;2.63;;;9.30;99.90;;;;;;5114989;28;20434;-73
2022/11/03 02:32:57;;;;;;;6.40;2.03;;;9.20;99.90;;;;;;5115368;28;20498;-72
2022/11/03 02:35:39;;;;;;;13.27;2.50;;;9.30;99.90;;;;;;5115062;28;20402;-73
2022/11/03 02:38:11;;;;;;;4.93;1.60;;;9.30;99.90;;;;;;5113963;28;20415;-73
2022/11/03 02:40:45;;;;;;;6.07;2.97;;;9.40;99.90;;;;;;5115219;28;21024;-72
2022/11/03 02:43:12;;;;;;;8.00;2.47;;;9.60;99.90;;;;;;5115121;28;20452;-72
2022/11/03 02:45:38;;;;;;;7.27;2.57;;;9.80;99.90;;;;;;5114782;28;20399;-72
2022/11/03 02:48:05;;;;;;;5.17;2.27;;;10.00;99.90;;;;;;5115042;28;20406;-72
2022/11/03 02:50:33;;;;;;;9.37;3.80;;;10.20;99.90;;;;;;5114651;28;20438;-72
2022/11/03 02:52:59;;;;;;;2.93;1.80;;;10.30;99.90;;;;;;5114956;28;20490;-72
2022/11/03 02:55:47;;;;;;;4.70;2.43;;;10.50;99.90;;;;;;5114719;28;20412;-72
2022/11/03 02:58:20;;;;;;;9.03;2.20;;;10.60;99.90;;;;;;5114868;28;20413;-72
2022/11/03 03:01:13;;;;;;;9.97;2.83;;;10.60;99.90;;;;;;5114428;28;21018;-72
2022/11/03 03:03:56;;;;;;;6.80;1.67;;;10.70;99.90;;;;;;5114832;28;20401;-72
2022/11/03 03:06:27;;;;;;;21.60;2.70;;;10.60;99.90;;;;;;5114274;28;20457;-73
2022/11/03 03:09:00;;;;;;;4.03;2.13;;;10.50;99.90;;;;;;5114313;28;20391;-72
2022/11/03 03:11:38;;;;;;;5.43;2.03;;;10.40;99.90;;;;;;5114676;28;20406;-72
2022/11/03 03:14:14;;;;;;;5.00;2.30;;;10.30;99.90;;;;;;5114548;28;20490;-72
2022/11/03 03:17:06;;;;;;;8.83;2.40;;;10.20;99.90;;;;;;5114482;28;20467;-73
2022/11/03 03:20:06;;;;;;;9.27;2.73;;;10.10;99.90;;;;;;5114227;27;20491;-73
2022/11/03 03:22:56;;;;;;;3.90;2.17;;;10.00;99.90;;;;;;5114350;28;20473;-73
2022/11/03 03:25:42;;;;;;;5.20;2.83;;;10.00;99.90;;;;;;5114089;28;20426;-72
2022/11/03 03:28:17;;;;;;;7.17;2.80;;;9.90;99.90;;;;;;5114293;28;20387;-73
2022/11/03 03:30:45;;;;;;;6.20;2.10;;;9.90;99.90;;;;;;5113984;28;20425;-72
2022/11/03 03:33:12;;;;;;;5.40;2.23;;;9.80;99.90;;;;;;5112848;28;20500;-72
2022/11/03 03:35:41;;;;;;;9.20;2.87;;;9.80;99.90;;;;;;5113900;28;20391;-72
2022/11/03 03:38:20;;;;;;;8.50;3.10;;;9.80;99.90;;;;;;5114058;28;20403;-72
2022/11/03 03:40:50;;;;;;;13.67;2.53;;;9.80;99.90;;;;;;5092422;28;20436;-73
2022/11/03 03:43:16;;;;;;;6.17;2.83;;;9.70;99.90;;;;;;5093577;28;20443;-72
2022/11/03 03:45:44;;;;;;;7.67;3.50;;;9.70;99.90;;;;;;5093348;28;20472;-72
2022/11/03 03:48:11;;;;;;;4.80;3.40;;;9.70;99.90;;;;;;5093600;28;20489;-72
2022/11/03 03:50:39;;;;;;;8.03;3.80;;;9.70;99.90;;;;;;5111960;28;20576;-73
2022/11/03 03:53:08;;;;;;;5.83;3.47;;;9.60;99.90;;;;;;5113798;28;20402;-72
2022/11/03 03:55:42;;;;;;;5.80;3.40;;;9.60;99.90;;;;;;5113492;28;20401;-72
2022/11/03 03:58:12;;;;;;;7.83;2.70;;;9.60;99.90;;;;;;5113628;28;20485;-72
2022/11/03 04:00:39;;;;;;;15.87;4.40;;;9.60;99.90;;;;;;5112033;28;20491;-72
2022/11/03 04:03:05;;;;;;;7.80;3.47;;;9.50;99.90;;;;;;5113572;28;20445;-72
2022/11/03 04:05:31;;;;;;;12.93;3.37;;;9.50;99.90;;;;;;5113205;28;20417;-71
2022/11/03 04:07:57;;;;;;;9.40;2.80;;;9.50;99.90;;;;;;5113509;28;20399;-72
2022/11/03 04:10:24;;;;;;;8.93;3.20;;;9.60;99.90;;;;;;5113098;28;20661;-71
2022/11/03 04:23:50;;;;;;;12.70;2.83;;;9.50;99.90;;;;;;5093031;28;20430;-72
2022/11/03 04:26:18;;;;;;;6.20;2.80;;;9.60;99.90;;;;;;5092554;28;20763;-72
2022/11/03 04:28:44;;;;;;;19.63;2.93;;;9.60;99.90;;;;;;5092785;28;20162;-72
2022/11/03 04:31:12;;;;;;;15.77;3.20;;;9.60;99.90;;;;;;5099065;28;20431;-71
2022/11/03 04:33:38;;;;;;;7.67;3.20;;;9.60;99.90;;;;;;5113043;28;20407;-71
2022/11/03 04:36:09;;;;;;;5.60;2.43;;;9.60;99.90;;;;;;5112710;28;20395;-72
2022/11/03 04:38:36;;;;;;;4.13;2.20;;;9.70;99.90;;;;;;5113041;28;20493;-72
2022/11/03 04:41:06;;;;;;;8.60;2.87;;;9.70;99.90;;;;;;5112552;28;20422;-71
2022/11/03 04:43:37;;;;;;;8.77;2.70;;;9.70;99.90;;;;;;5113036;28;20407;-71
2022/11/03 04:46:03;;;;;;;8.03;2.40;;;9.70;99.90;;;;;;5112624;28;20414;-71
2022/11/03 04:48:29;;;;;;;5.53;2.53;;;9.80;99.90;;;;;;5112751;28;20791;-71
2022/11/03 04:50:58;;;;;;;6.03;2.30;;;9.80;99.90;;;;;;5112659;28;20440;-71
2022/11/03 04:53:26;;;;;;;13.63;3.27;;;9.80;99.90;;;;;;5112378;28;20570;-72
2022/11/03 04:55:53;;;;;;;10.73;3.00;;;9.80;99.90;;;;;;5112294;28;20410;-72
2022/11/03 04:58:30;;;;;;;13.00;3.50;;;9.80;99.90;;;;;;5112665;28;20951;-72
2022/11/03 05:00:59;;;;;;;7.00;3.67;;;9.80;99.90;;;;;;5112531;28;20852;-72
2022/11/03 05:03:33;;;;;;;9.70;2.60;;;9.90;99.90;;;;;;5111312;28;20407;-72
2022/11/03 05:06:08;;;;;;;5.37;2.53;;;9.90;99.90;;;;;;5112115;28;20410;-71
2022/11/03 05:08:34;;;;;;;12.00;3.00;;;9.90;99.90;;;;;;5112434;28;20444;-71
2022/11/03 05:11:00;;;;;;;6.97;2.87;;;9.90;99.90;;;;;;5112427;28;20462;-72
2022/11/03 05:13:27;;;;;;;5.20;1.97;;;9.90;99.90;;;;;;5112518;28;20216;-72
2022/11/03 05:16:03;;;;;;;10.13;2.40;;;9.90;99.90;;;;;;5112204;28;20161;-72
2022/11/03 05:18:32;;;;;;;3.37;1.90;;;9.90;99.90;;;;;;5112170;28;20771;-72
2022/11/03 05:20:59;;;;;;;5.10;2.27;;;9.90;99.90;;;;;;5112277;28;20487;-72
2022/11/03 05:23:28;;;;;;;5.67;2.67;;;9.90;99.90;;;;;;5112252;28;20541;-71
2022/11/03 05:25:57;;;;;;;9.60;2.30;;;9.90;99.90;;;;;;5112001;28;20440;-72
2022/11/03 05:28:30;;;;;;;14.43;3.13;;;9.90;99.90;;;;;;5112355;28;20397;-72
2022/11/03 05:30:56;;;;;;;10.20;2.97;;;10.00;99.90;;;;;;5116257;28;20434;-72
2022/11/03 05:33:25;;;;;;;9.03;2.23;;;10.00;99.90;;;;;;5116503;28;20390;-72
2022/11/03 05:35:50;;;;;;;9.53;3.13;;;10.00;99.90;;;;;;5116220;28;20160;-72
2022/11/03 05:38:19;;;;;;;5.63;2.43;;;10.10;99.90;;;;;;5116421;28;20501;-71
2022/11/03 05:40:48;;;;;;;4.53;2.17;;;10.10;99.90;;;;;;5116637;28;20176;-71
2022/11/03 05:43:14;;;;;;;8.10;3.13;;;10.10;99.90;;;;;;5115973;28;20537;-71
2022/11/03 05:45:40;;;;;;;16.93;3.13;;;10.20;99.90;;;;;;5115962;28;20403;-71
2022/11/03 05:48:25;;;;;;;4.30;2.67;;;10.20;99.90;;;;;;5116287;28;20402;-72
2022/11/03 05:50:51;;;;;;;4.90;2.37;;;10.20;99.90;;;;;;5116175;28;20422;-71
2022/11/03 05:53:37;;;;;;;6.00;3.30;;;10.30;99.90;;;;;;5115994;28;20756;-71
2022/11/03 05:56:05;;;;;;;6.97;2.10;;;10.30;99.90;;;;;;5115762;28;20187;-71
2022/11/03 05:58:38;;;;;;;7.53;3.40;;;10.30;99.90;;;;;;5116061;28;20412;-72
2022/11/03 06:01:18;;;;;;;6.33;2.63;;;10.40;99.90;;;;;;5115604;28;20438;-72
2022/11/03 06:03:45;;;;;;;7.60;3.37;;;10.30;99.90;;;;;;5115855;28;20433;-72
2022/11/03 06:06:18;;;;;;;6.00;3.00;;;10.40;99.90;;;;;;5114262;28;20414;-72
2022/11/03 06:08:44;;;;;;;10.47;2.83;;;10.30;99.90;;;;;;5115762;28;20486;-71
2022/11/03 06:11:18;;;;;;;4.13;2.77;;;10.30;99.90;;;;;;5115345;28;20517;-71
2022/11/03 06:13:44;;;;;;;7.83;3.03;;;10.40;99.90;;;;;;5115794;28;20156;-71
2022/11/03 06:16:27;;;;;;;6.23;2.77;;;10.40;99.90;;;;;;5115411;28;20460;-72
2022/11/03 06:18:53;;;;;;;9.00;2.60;;;10.40;99.90;;;;;;5114233;28;20172;-72
2022/11/03 06:21:23;;;;;;;3.40;2.07;;;10.40;99.90;;;;;;5115548;28;20823;-72
2022/11/03 06:23:49;;;;;;;5.07;2.80;;;10.50;99.90;;;;;;5115289;28;20169;-72
2022/11/03 06:26:21;;;;;;;10.10;3.23;;;10.50;99.90;;;;;;5115313;28;20403;-71
2022/11/03 06:28:47;;;;;;;8.90;2.40;;;10.50;99.90;;;;;;5115493;28;20417;-71
2022/11/03 06:31:19;;;;;;;14.93;3.60;;;10.50;99.90;;;;;;5115428;28;20398;-72
2022/11/03 06:33:45;;;;;;;8.53;3.10;;;10.60;99.90;;;;;;5115385;28;20403;-72
2022/11/03 06:36:23;;;;;;;3.83;2.30;;;10.60;99.90;;;;;;5114899;28;20407;-72
2022/11/03 06:39:14;;;;;;;7.67;3.27;;;10.50;99.90;;;;;;5115221;28;20485;-72
2022/11/03 06:41:40;;;;;;;5.00;2.83;;;10.50;99.90;;;;;;5114753;28;20552;-72
2022/11/03 06:44:27;;;;;;;5.53;2.80;;;10.50;99.90;;;;;;5114658;28;20846;-72
2022/11/03 06:46:55;;;;;;;8.63;2.30;;;10.60;99.90;;;;;;5115148;28;20165;-72
2022/11/03 06:49:33;;;;;;;4.90;2.27;;;10.50;99.90;;;;;;5115061;28;20431;-72
2022/11/03 06:52:13;;;;;;;10.30;3.10;;;10.50;99.90;;;;;;5114685;28;20430;-72
2022/11/03 06:54:39;;;;;;;6.63;2.10;;;10.50;99.90;;;;;;5114696;28;20489;-72
2022/11/03 06:57:12;;;;;;;10.43;2.17;;;10.50;99.90;;;;;;5114948;28;20414;-72
2022/11/03 06:59:37;;;;;;;6.07;2.70;;;10.50;99.90;;;;;;5114854;27;20454;-72
2022/11/03 07:02:40;;;;;;;5.17;3.13;;;10.50;99.90;;;;;;5114539;28;20859;-72
2022/11/03 07:05:19;;;;;;;5.43;3.00;;;10.50;99.90;;;;;;5082789;28;20187;-72
2022/11/03 07:07:45;;;;;;;13.80;3.60;;;10.50;99.90;;;;;;5114618;28;20415;-72
2022/11/03 07:10:11;;;;;;;15.13;3.50;;;10.60;99.90;;;;;;5114656;27;20458;-72
2022/11/03 07:12:37;;;;;;;7.97;3.40;;;10.70;99.90;;;;;;5114640;28;20892;-72
2022/11/03 07:15:15;;;;;;;5.37;2.30;;;10.90;99.90;;;;;;5113965;28;20181;-72
2022/11/03 07:17:40;;;;;;;5.40;3.67;;;10.90;99.90;;;;;;5114567;28;20199;-72
2022/11/03 07:20:14;;;;;;;12.40;2.87;;;11.10;99.90;;;;;;5113130;28;20462;-72
2022/11/03 07:22:40;;;;;;;4.03;2.60;;;11.20;99.90;;;;;;5114272;28;20564;-72
2022/11/03 07:25:16;;;;;;;10.50;3.50;;;11.30;99.90;;;;;;5112839;28;20419;-72
2022/11/03 07:27:41;;;;;;;4.30;3.00;;;11.50;99.90;;;;;;5114185;28;20188;-71
2022/11/03 07:30:26;;;;;;;4.67;2.43;;;11.60;99.90;;;;;;5112401;28;20462;-71
2022/11/03 07:32:53;;;;;;;11.70;3.57;;;11.80;99.90;;;;;;5114257;28;20165;-71
2022/11/03 07:35:38;;;;;;;7.10;2.53;;;11.80;99.90;;;;;;5113587;28;20475;-72
2022/11/03 07:38:12;;;;;;;15.23;3.17;;;12.00;99.90;;;;;;5114137;28;20786;-71
2022/11/03 07:40:37;;;;;;;3.90;2.23;;;12.20;99.90;;;;;;5114066;28;21002;-72
2022/11/03 07:43:30;;;;;;;7.30;2.53;;;12.50;99.90;;;;;;5112714;28;20529;-72
2022/11/03 07:45:59;;;;;;;12.53;2.90;;;13.00;99.90;;;;;;5113406;28;20192;-71
2022/11/03 07:48:41;;;;;;;7.47;2.60;;;13.10;99.90;;;;;;5113893;28;20403;-72
2022/11/03 07:51:31;;;;;;;7.73;3.00;;;13.20;99.90;;;;;;5113241;28;20466;-72
2022/11/03 07:54:08;;;;;;;5.13;2.80;;;13.30;99.90;;;;;;5113973;28;20444;-72
2022/11/03 07:56:48;;;;;;;12.20;2.60;;;13.30;99.90;;;;;;5112055;28;20414;-72
2022/11/03 07:59:21;;;;;;;8.73;2.80;;;13.10;99.90;;;;;;5113809;28;20415;-72
2022/11/03 08:01:54;;;;;;;8.17;3.33;;;13.10;99.90;;;;;;5113594;28;20469;-71
2022/11/03 08:04:31;;;;;;;6.17;2.40;;;12.90;99.90;;;;;;5113336;27;20410;-71
2022/11/03 08:06:57;;;;;;;11.17;2.67;;;12.90;99.90;;;;;;5113627;28;20752;-71
2022/11/03 08:09:23;;;;;;;5.43;2.53;;;12.90;99.90;;;;;;5113180;28;20430;-71
2022/11/03 08:11:49;;;;;;;11.23;2.77;;;12.90;99.90;;;;;;5113544;28;20256;-73
2022/11/03 08:14:15;;;;;;;11.33;3.17;;;13.00;99.90;;;;;;5113215;28;20173;-71
2022/11/03 08:16:40;;;;;;;3.23;2.33;;;13.10;99.90;;;;;;5113397;28;20409;-72
2022/11/03 08:19:06;;;;;;;10.53;1.93;;;13.10;99.90;;;;;;5112366;28;20180;-73
2022/11/03 08:21:32;;;;;;;15.40;3.00;;;13.10;99.90;;;;;;5111645;28;20601;-72
2022/11/03 08:23:58;;;;;;;3.57;2.73;;;13.20;99.90;;;;;;5113068;28;20414;-72
2022/11/03 08:26:24;;;;;;;4.50;2.50;;;13.20;99.90;;;;;;5113064;28;20930;-73
2022/11/03 08:28:49;;;;;;;8.17;2.80;;;13.20;99.90;;;;;;5111787;28;20183;-72
2022/11/03 08:31:15;;;;;;;2.37;2.13;;;13.30;99.90;;;;;;5113122;28;20188;-71
2022/11/03 08:33:40;;;;;;;5.60;2.63;;;13.20;99.90;;;;;;5112836;28;20226;-72
2022/11/03 08:36:07;;;;;;;4.03;2.00;;;13.20;99.90;;;;;;5112748;28;20165;-72
2022/11/03 08:38:33;;;;;;;6.10;2.47;;;13.20;99.90;;;;;;5112934;28;20247;-72
2022/11/03 08:40:59;;;;;;;5.03;2.30;;;13.20;99.90;;;;;;5112834;28;20557;-72
2022/11/03 08:43:24;;;;;;;8.70;2.20;;;13.30;99.90;;;;;;5112671;28;20599;-72
2022/11/03 08:45:52;;;;;;;4.00;2.13;;;13.20;99.90;;;;;;5112142;28;20438;-71
2022/11/03 08:48:26;;;;;;;3.40;2.10;;;13.30;99.90;;;;;;5112926;27;20165;-71
2022/11/03 08:50:53;;;;;;;3.53;1.80;;;13.30;99.90;;;;;;5112675;28;20475;-71
2022/11/03 08:53:19;;;;;;;6.97;2.20;;;13.40;99.90;;;;;;5112710;28;20497;-72
2022/11/03 08:55:44;;;;;;;4.70;1.83;;;13.40;99.90;;;;;;5112260;28;21077;-71
2022/11/03 08:58:10;;;;;;;3.83;2.27;;;13.60;99.90;;;;;;5112804;28;20525;-72
2022/11/03 09:00:36;;;;;;;9.73;2.97;;;13.70;99.90;;;;;;5112628;28;20241;-74
2022/11/03 09:03:01;;;;;;;4.50;2.07;;;13.80;99.90;;;;;;5113397;28;20461;-72
2022/11/03 09:05:27;;;;;;;5.03;2.20;;;13.80;99.90;;;;;;5112173;28;20165;-73
2022/11/03 09:07:53;;;;;;;9.53;2.07;;;13.90;99.90;;;;;;5112218;28;20245;-73
2022/11/03 09:10:19;;;;;;;3.97;1.83;;;13.90;99.90;;;;;;5112540;28;20702;-72
2022/11/03 09:12:44;;;;;;;5.57;2.17;;;13.90;99.90;;;;;;5112528;28;20172;-72
2022/11/03 09:15:10;;;;;;;6.33;2.00;;;13.90;99.90;;;;;;5112269;28;20192;-73
2022/11/03 09:17:36;;;;;;;4.30;2.07;;;13.90;99.90;;;;;;5111168;28;20226;-72
2022/11/03 09:20:02;;;;;;;12.00;2.03;;;13.90;99.90;;;;;;5112117;28;20442;-73
2022/11/03 09:22:27;;;;;;;2.73;1.50;;;14.00;99.90;;;;;;5112406;28;20220;-73
2022/11/03 09:24:53;;;;;;;4.03;1.40;;;14.10;99.90;;;;;;5111961;28;20993;-73
2022/11/03 09:27:18;;;;;;;2.93;2.33;;;14.20;99.90;;;;;;5112502;28;20656;-72
2022/11/03 09:29:44;;;;;;;12.77;1.87;;;14.20;99.90;;;;;;5112282;28;20185;-73
2022/11/03 09:32:10;;;;;;;5.93;2.47;;;14.30;99.90;;;;;;5112078;28;20526;-74
2022/11/03 09:34:35;;;;;;;4.07;2.20;;;14.40;99.90;;;;;;5111847;28;20200;-73
2022/11/03 09:37:01;;;;;;;6.90;2.47;;;14.50;99.90;;;;;;5112118;28;20177;-73
2022/11/03 09:39:26;;;;;;;6.70;1.70;;;14.50;99.90;;;;;;5111823;28;20212;-73
2022/11/03 09:41:54;;;;;;;5.90;1.80;;;14.60;99.90;;;;;;5112043;28;20192;-73
2022/11/03 09:44:20;;;;;;;4.20;1.70;;;14.70;99.90;;;;;;5111639;28;20212;-73
2022/11/03 09:46:46;;;;;;;8.90;1.70;;;14.60;99.90;;;;;;5112216;28;20413;-73
2022/11/03 09:49:14;;;;;;;2.43;1.27;;;14.70;99.90;;;;;;5112016;28;20423;-73
2022/11/03 09:51:41;;;;;;;4.20;1.37;;;14.70;99.90;;;;;;5112101;28;20417;-73
2022/11/03 09:54:10;;;;;;;2.90;1.20;;;14.60;99.90;;;;;;5111970;28;20417;-73
2022/11/03 09:56:36;;;;;;;2.23;1.30;;;14.70;99.90;;;;;;5111298;28;20439;-74
2022/11/03 09:59:12;;;;;;;5.43;1.30;;;14.70;99.90;;;;;;5111800;28;20501;-73
2022/11/03 10:01:37;;;;;;;4.90;1.50;;;14.70;99.90;;;;;;5111764;28;20697;-74
2022/11/03 10:04:03;;;;;;;6.40;1.70;;;14.60;99.90;;;;;;5111954;28;20405;-73
2022/11/03 10:06:29;;;;;;;2.77;1.30;;;14.70;99.90;;;;;;5111736;28;20200;-73
2022/11/03 10:08:55;;;;;;;2.03;1.33;;;14.60;99.90;;;;;;5112945;28;20188;-75
2022/11/03 10:11:20;;;;;;;4.90;1.80;;;14.70;99.90;;;;;;5114175;28;20169;-74
2022/11/03 10:13:49;;;;;;;3.87;1.70;;;14.60;99.90;;;;;;5113833;28;20173;-75
2022/11/03 10:16:17;;;;;;;9.37;2.70;;;14.60;99.90;;;;;;5115925;27;20172;-73
2022/11/03 10:18:43;;;;;;;4.57;1.57;;;14.70;99.90;;;;;;5116816;28;20421;-74
2022/11/03 10:21:19;;;;;;;9.63;1.93;;;14.60;99.90;;;;;;5116228;28;20410;-73
2022/11/03 10:23:45;;;;;;;5.43;1.80;;;14.60;99.90;;;;;;5114064;28;20518;-73
2022/11/03 10:26:17;;;;;;;5.40;2.13;;;14.60;99.90;;;;;;5115280;28;20426;-73
2022/11/03 10:29:04;;;;;;;2.90;1.40;;;14.60;99.90;;;;;;5102437;28;20403;-74
2022/11/03 10:31:40;;;;;;;4.73;1.80;;;14.60;99.90;;;;;;5095293;28;20396;-73
2022/11/03 10:34:25;;;;;;;10.97;2.30;;;14.60;99.90;;;;;;5104116;28;20471;-73
2022/11/03 10:37:21;;;;;;;2.27;1.73;;;14.50;99.90;;;;;;5113971;28;20415;-73
2022/11/03 10:39:59;;;;;;;4.73;1.50;;;14.50;99.90;;;;;;5115249;28;20458;-74
2022/11/03 10:42:29;;;;;;;12.17;1.80;;;14.30;99.90;;;;;;5114945;27;20592;-73
2022/11/03 10:45:16;;;;;;;3.93;1.53;;;14.30;99.90;;;;;;5114949;28;20486;-73
2022/11/03 10:47:42;;;;;;;8.13;1.80;;;14.20;99.90;;;;;;5115109;28;20726;-72
2022/11/03 10:50:23;;;;;;;3.20;1.80;;;14.00;99.90;;;;;;5115272;28;20426;-73
2022/11/03 10:52:50;;;;;;;7.00;2.07;;;14.00;99.90;;;;;;5114843;28;20429;-73
2022/11/03 10:55:17;;;;;;;2.90;1.57;;;13.80;99.90;;;;;;5114566;28;20414;-73
2022/11/03 10:57:43;;;;;;;7.23;1.90;;;13.80;99.90;;;;;;5114915;28;20419;-73
2022/11/03 11:00:14;;;;;;;3.93;1.70;;;13.60;99.90;;;;;;5114810;28;20437;-72
2022/11/03 11:02:42;;;;;;;9.33;2.63;;;13.60;99.90;;;;;;5114564;28;20196;-74
2022/11/03 11:05:22;;;;;;;5.30;2.13;;;13.60;99.90;;;;;;5114477;28;20410;-73
2022/11/03 11:07:52;;;;;;;6.70;2.20;;;13.50;99.90;;;;;;5114825;28;20409;-72
2022/11/03 11:10:24;;;;;;;7.80;1.87;;;13.50;99.90;;;;;;5114703;28;20425;-74
2022/11/03 11:13:16;;;;;;;2.03;1.30;;;13.40;99.90;;;;;;5114135;28;20486;-73
2022/11/03 11:15:43;;;;;;;4.93;2.00;;;13.40;99.90;;;;;;5114320;28;20401;-73
2022/11/03 11:18:09;;;;;;;2.40;1.33;;;13.40;99.90;;;;;;5113204;28;20463;-73
2022/11/03 11:20:37;;;;;;;4.73;1.90;;;13.40;99.90;;;;;;5114375;28;20522;-73
2022/11/03 11:23:40;;;;;;;6.90;1.77;;;13.40;99.90;;;;;;5113973;28;20454;-72
2022/11/03 11:26:08;;;;;;;3.83;1.73;;;13.40;99.90;;;;;;5050832;28;20479;-73
2022/11/03 11:28:40;;;;;;;6.07;1.87;;;13.40;99.90;;;;;;5103321;28;20402;-72
2022/11/03 11:31:27;;;;;;;3.60;1.33;;;13.40;99.90;;;;;;5106502;28;20931;-74
2022/11/03 11:34:08;;;;;;;4.03;1.40;;;13.40;99.90;;;;;;5109606;28;20420;-74
2022/11/03 11:36:35;;;;;;;3.30;1.50;;;13.40;99.90;;;;;;5115099;28;20410;-74
2022/11/03 11:39:02;;;;;;;2.67;1.50;;;13.40;99.90;;;;;;5113662;28;20407;-74
2022/11/03 11:42:05;;;;;;;7.90;2.43;;;13.30;99.90;;;;;;5114940;27;20454;-75
2022/11/03 11:44:44;;;;;;;6.20;1.30;;;13.30;99.90;;;;;;5114082;28;20952;-74
2022/11/03 11:47:30;;;;;;;7.20;1.80;;;13.30;99.90;;;;;;5115121;28;21098;-75
2022/11/03 11:50:04;;;;;;;2.77;1.77;;;13.30;99.90;;;;;;5115434;28;20426;-74
2022/11/03 11:52:38;;;;;;;5.63;1.90;;;13.30;99.90;;;;;;5114231;28;20434;-74
2022/11/03 11:55:05;;;;;;;4.60;1.70;;;13.30;99.90;;;;;;5115179;28;20398;-75
2022/11/03 11:57:33;;;;;;;7.43;2.70;;;13.20;99.90;;;;;;5114813;28;20390;-74
2022/11/03 11:59:59;;;;;;;3.37;1.43;;;13.10;99.90;;;;;;5114821;28;20532;-73
2022/11/03 12:02:28;;;;;;;2.90;1.63;;;13.10;99.90;;;;;;5114733;28;20595;-74
2022/11/03 12:05:00;;;;;;;8.30;1.80;;;13.10;99.90;;;;;;5108471;28;20179;-74
2022/11/03 12:07:35;;;;;;;3.70;1.97;;;13.20;99.90;;;;;;5098886;28;20419;-74
2022/11/03 12:10:08;;;;;;;5.17;2.57;;;13.20;99.90;;;;;;5093574;28;20955;-74
2022/11/03 12:12:34;;;;;;;2.80;1.67;;;13.20;99.90;;;;;;5098336;28;20426;-74
2022/11/03 12:15:00;;;;;;;4.47;2.00;;;13.30;99.90;;;;;;5113247;28;20929;-74
2022/11/03 12:17:25;;;;;;;2.70;1.67;;;13.30;99.90;;;;;;5113367;28;20695;-73
2022/11/03 12:19:53;;;;;;;6.60;2.17;;;13.30;99.90;;;;;;5113184;28;20526;-72
2022/11/03 12:22:27;;;;;;;5.10;1.93;;;13.30;99.90;;;;;;5112335;28;20506;-74
2022/11/03 12:24:57;;;;;;;7.80;1.73;;;13.30;99.90;;;;;;5113519;28;20418;-74
2022/11/03 12:27:23;;;;;;;2.37;1.73;;;13.30;99.90;;;;;;5113615;27;20898;-72
2022/11/03 12:29:52;;;;;;;10.00;1.87;;;13.30;99.90;;;;;;5113021;28;20415;-73
2022/11/03 12:32:20;;;;;;;4.40;2.20;;;13.20;99.90;;;;;;5105207;28;20201;-73
2022/11/03 12:34:46;;;;;;;3.40;1.90;;;13.20;99.90;;;;;;5100809;28;20419;-72
2022/11/03 12:37:11;;;;;;;2.60;1.80;;;13.20;99.90;;;;;;5112707;28;20814;-72
2022/11/03 12:39:37;;;;;;;8.33;2.13;;;13.20;99.90;;;;;;5111338;28;20700;-73
2022/11/03 12:42:03;;;;;;;5.00;1.83;;;13.20;99.90;;;;;;5112830;28;20193;-73
2022/11/03 12:44:29;;;;;;;8.33;2.17;;;13.20;99.90;;;;;;5112537;28;20403;-73
2022/11/03 12:46:54;;;;;;;6.60;2.47;;;13.20;99.90;;;;;;5112564;28;20414;-73
2022/11/03 12:49:20;;;;;;;3.97;2.57;;;13.20;99.90;;;;;;5112715;28;20189;-72
2022/11/03 12:51:45;;;;;;;7.13;2.43;;;13.20;99.90;;;;;;5112819;28;20218;-73
2022/11/03 12:54:11;;;;;;;5.77;2.60;;;13.10;99.90;;;;;;5112531;28;20169;-73
2022/11/03 12:56:36;;;;;;;6.40;1.83;;;13.20;99.90;;;;;;5112440;28;20529;-74
2022/11/03 12:59:02;;;;;;;3.10;2.70;;;13.20;99.90;;;;;;5112290;28;20177;-74
2022/11/03 13:01:28;;;;;;;2.77;1.70;;;13.20;99.90;;;;;;5112574;28;20222;-73
2022/11/03 13:03:53;;;;;;;7.83;2.20;;;13.30;99.90;;;;;;5112588;28;20165;-73
2022/11/03 13:06:19;;;;;;;4.40;1.73;;;13.40;99.90;;;;;;5112329;28;20169;-74
2022/11/03 13:08:45;;;;;;;4.00;1.97;;;13.40;99.90;;;;;;5112424;28;20165;-72
2022/11/03 13:13:55;;;;;;;3.37;1.90;;;13.50;99.90;;;;;;5112392;28;20172;-72
2022/11/03 13:16:21;;;;;;;4.03;1.83;;;13.50;99.90;;;;;;5112033;28;20410;-73
2022/11/03 13:18:47;;;;;;;4.50;1.90;;;13.60;99.90;;;;;;5112459;28;20181;-74
2022/11/03 13:21:13;;;;;;;4.23;2.30;;;13.60;99.90;;;;;;5113383;28;20218;-74
2022/11/03 13:23:39;;;;;;;3.63;1.97;;;13.60;99.90;;;;;;5112608;28;20495;-74
2022/11/03 13:26:05;;;;;;;5.20;1.97;;;13.60;99.90;;;;;;5111063;28;20203;-75
2022/11/03 13:28:30;;;;;;;2.97;1.90;;;13.50;99.90;;;;;;5112436;28;20442;-74
2022/11/03 13:30:56;;;;;;;3.27;2.03;;;13.50;99.90;;;;;;5112360;28;20180;-74
2022/11/03 13:33:21;;;;;;;2.77;1.90;;;13.50;99.90;;;;;;5112246;28;20238;-73